Time;durP1;ratioP1;P1;durP2;ratioP2;P2;SDS_P1;SDS_P2;PMS_P1;PMS_P2;Temp;Humidity;BMP_temperature;BMP_pressure;BME280_temperature;BME280_humidity;BME280_pressure;Samples;Min_cycle;Max_cycle;Signal;HPM_P1;HPM_P2
2023/08/26 00:01:16;;;;;;;3.83;1.45;;;;;;;;;;5019942;28;20156;-65
2023/08/26 00:03:41;;;;;;;5.65;1.60;;;;;;;;;;5022467;28;20044;-65
2023/08/26 00:06:06;;;;;;;5.50;1.50;;;;;;;;;;5022360;28;20140;-65
2023/08/26 00:08:32;;;;;;;3.10;1.45;;;;;;;;;;5023076;28;20045;-65
2023/08/26 00:10:58;;;;;;;6.05;1.30;;;;;;;;;;5020136;28;20033;-65
2023/08/26 00:13:23;;;;;;;3.17;1.38;;;;;;;;;;5022513;28;20033;-65
2023/08/26 00:15:48;;;;;;;6.65;1.52;;;;;;;;;;5020673;28;22235;-65
2023/08/26 00:18:16;;;;;;;6.50;1.60;;;;;;;;;;5022471;28;20048;-65
2023/08/26 00:20:41;;;;;;;4.25;1.50;;;;;;;;;;5020002;28;20033;-65
2023/08/26 00:23:08;;;;;;;4.82;1.42;;;;;;;;;;5024672;28;20039;-66
2023/08/26 00:25:33;;;;;;;4.15;1.40;;;;;;;;;;5021988;28;20063;-66
2023/08/26 00:27:59;;;;;;;5.25;1.60;;;;;;;;;;5019509;28;20032;-65
2023/08/26 00:30:24;;;;;;;6.05;1.48;;;;;;;;;;5020584;28;20464;-65
2023/08/26 00:32:50;;;;;;;4.57;1.80;;;;;;;;;;5020927;28;20033;-65
2023/08/26 00:35:15;;;;;;;5.40;1.77;;;;;;;;;;5020123;28;20422;-65
2023/08/26 00:37:41;;;;;;;4.22;1.27;;;;;;;;;;5026056;28;20070;-65
2023/08/26 00:40:06;;;;;;;4.28;1.40;;;;;;;;;;5024189;28;20034;-66
2023/08/26 00:42:38;;;;;;;6.57;1.45;;;;;;;;;;5021034;28;20128;-65
2023/08/26 00:45:07;;;;;;;3.72;1.40;;;;;;;;;;5020451;28;20036;-65
2023/08/26 00:47:33;;;;;;;7.32;1.80;;;;;;;;;;5018834;28;20025;-66
2023/08/26 00:50:00;;;;;;;5.88;2.10;;;;;;;;;;5024278;28;20052;-65
2023/08/26 00:52:27;;;;;;;9.02;2.22;;;;;;;;;;5017889;28;20122;-65
2023/08/26 00:54:52;;;;;;;3.78;1.40;;;;;;;;;;5021978;28;20037;-65
2023/08/26 00:57:17;;;;;;;6.30;1.55;;;;;;;;;;5020444;28;20470;-65
2023/08/26 00:59:43;;;;;;;7.03;1.50;;;;;;;;;;5021154;28;20041;-65
2023/08/26 01:02:10;;;;;;;5.88;1.80;;;;;;;;;;5022302;28;20043;-65
2023/08/26 01:04:35;;;;;;;4.35;1.55;;;;;;;;;;5017191;28;20040;-65
2023/08/26 01:07:01;;;;;;;4.47;1.65;;;;;;;;;;5018038;28;20036;-65
2023/08/26 01:09:28;;;;;;;8.13;2.50;;;;;;;;;;5019019;28;21646;-65
2023/08/26 01:11:57;;;;;;;8.32;3.83;;;;;;;;;;5019465;28;20120;-65
2023/08/26 01:14:29;;;;;;;9.43;4.15;;;;;;;;;;5018670;28;20036;-64
2023/08/26 01:16:54;;;;;;;8.23;3.53;;;;;;;;;;5019979;28;20156;-65
2023/08/26 01:19:39;;;;;;;17.98;4.20;;;;;;;;;;5017994;28;20043;-65
2023/08/26 01:22:08;;;;;;;15.07;4.32;;;;;;;;;;5050156;28;20103;-65
2023/08/26 01:24:34;;;;;;;12.05;4.60;;;;;;;;;;5019343;28;20047;-65
2023/08/26 01:26:59;;;;;;;11.15;5.03;;;;;;;;;;5001380;28;20033;-65
2023/08/26 01:29:25;;;;;;;12.32;5.25;;;;;;;;;;5019949;28;20049;-65
2023/08/26 01:32:14;;;;;;;10.25;4.13;;;;;;;;;;5019588;28;20406;-65
2023/08/26 01:34:40;;;;;;;9.43;4.53;;;;;;;;;;5006430;28;20040;-64
2023/08/26 01:37:07;;;;;;;14.15;5.93;;;;;;;;;;5020121;28;20053;-64
2023/08/26 01:39:33;;;;;;;13.32;6.20;;;;;;;;;;4996454;28;20075;-64
2023/08/26 01:42:00;;;;;;;13.90;7.70;;;;;;;;;;5018403;28;20250;-65
2023/08/26 01:44:26;;;;;;;15.07;7.03;;;;;;;;;;5017036;28;20037;-65
2023/08/26 01:46:52;;;;;;;13.93;6.88;;;;;;;;;;5048974;28;20087;-64
2023/08/26 01:49:18;;;;;;;16.08;6.20;;;;;;;;;;5016085;28;20071;-65
2023/08/26 01:51:45;;;;;;;12.05;4.30;;;;;;;;;;5017756;28;20874;-65
2023/08/26 01:54:10;;;;;;;8.82;4.63;;;;;;;;;;5018790;28;20038;-64
2023/08/26 01:56:36;;;;;;;13.90;6.38;;;;;;;;;;5019037;28;20079;-64
2023/08/26 01:59:02;;;;;;;22.30;8.25;;;;;;;;;;5022141;28;20041;-64
2023/08/26 02:01:27;;;;;;;36.08;12.35;;;;;;;;;;5004791;28;20102;-66
2023/08/26 02:03:52;;;;;;;38.42;12.60;;;;;;;;;;5015327;28;20034;-65
2023/08/26 02:06:20;;;;;;;24.30;9.85;;;;;;;;;;5017117;28;21919;-64
2023/08/26 02:08:45;;;;;;;24.52;9.57;;;;;;;;;;5021055;28;20051;-64
2023/08/26 02:11:11;;;;;;;36.70;10.93;;;;;;;;;;5019446;28;20932;-64
2023/08/26 02:13:36;;;;;;;35.72;11.50;;;;;;;;;;5017013;28;20643;-65
2023/08/26 02:16:02;;;;;;;32.22;11.23;;;;;;;;;;5019033;28;20498;-65
2023/08/26 02:18:27;;;;;;;47.08;16.00;;;;;;;;;;5017129;28;20037;-65
2023/08/26 02:20:52;;;;;;;44.63;15.55;;;;;;;;;;5022253;28;20064;-65
2023/08/26 02:23:17;;;;;;;23.73;9.18;;;;;;;;;;5017509;28;20557;-65
2023/08/26 02:25:43;;;;;;;17.80;7.22;;;;;;;;;;5022604;28;20040;-65
2023/08/26 02:28:08;;;;;;;12.40;4.72;;;;;;;;;;5016288;28;20125;-64
2023/08/26 02:30:33;;;;;;;7.97;4.63;;;;;;;;;;5022461;28;20030;-64
2023/08/26 02:33:06;;;;;;;8.02;4.38;;;;;;;;;;5019067;28;20441;-64
2023/08/26 02:35:32;;;;;;;18.45;5.05;;;;;;;;;;5017283;28;20030;-64
2023/08/26 02:37:57;;;;;;;13.32;4.78;;;;;;;;;;5016666;28;20425;-64
2023/08/26 02:40:22;;;;;;;8.88;4.97;;;;;;;;;;5017544;28;20036;-64
2023/08/26 02:42:48;;;;;;;9.45;4.60;;;;;;;;;;5017149;28;20138;-64
2023/08/26 02:45:13;;;;;;;7.65;3.40;;;;;;;;;;5016126;28;20036;-65
2023/08/26 02:47:38;;;;;;;8.43;4.43;;;;;;;;;;5017740;28;20086;-65
2023/08/26 02:50:04;;;;;;;10.50;5.25;;;;;;;;;;5016633;28;20053;-65
2023/08/26 02:52:37;;;;;;;10.27;4.65;;;;;;;;;;5006416;28;20065;-64
2023/08/26 02:55:02;;;;;;;7.32;3.97;;;;;;;;;;5015966;28;20033;-64
2023/08/26 02:57:28;;;;;;;7.90;4.70;;;;;;;;;;5020611;28;21725;-63
2023/08/26 02:59:53;;;;;;;12.48;6.15;;;;;;;;;;5018067;28;20090;-65
2023/08/26 03:02:24;;;;;;;11.45;5.10;;;;;;;;;;5019292;28;20095;-64
2023/08/26 03:04:50;;;;;;;15.23;9.48;;;;;;;;;;5017446;28;20041;-64
2023/08/26 03:07:15;;;;;;;12.23;7.65;;;;;;;;;;5049197;28;20044;-64
2023/08/26 03:09:40;;;;;;;9.82;5.90;;;;;;;;;;5017665;28;20040;-66
2023/08/26 03:12:06;;;;;;;10.43;5.45;;;;;;;;;;5023352;28;20036;-65
2023/08/26 03:14:31;;;;;;;15.18;6.63;;;;;;;;;;5017439;28;20057;-65
2023/08/26 03:16:56;;;;;;;15.43;8.55;;;;;;;;;;5020701;28;20064;-65
2023/08/26 03:19:22;;;;;;;12.57;7.38;;;;;;;;;;5016900;28;20051;-65
2023/08/26 03:21:47;;;;;;;13.07;7.10;;;;;;;;;;5027892;28;20043;-65
2023/08/26 03:24:13;;;;;;;12.63;6.07;;;;;;;;;;5018589;28;20045;-65
2023/08/26 03:26:42;;;;;;;10.20;5.85;;;;;;;;;;5018006;28;20103;-65
2023/08/26 03:29:08;;;;;;;11.77;6.60;;;;;;;;;;5018319;28;20131;-65
2023/08/26 03:31:33;;;;;;;15.40;8.40;;;;;;;;;;5018480;28;20037;-65
2023/08/26 03:33:58;;;;;;;13.30;8.52;;;;;;;;;;5019843;28;20041;-65
2023/08/26 03:36:24;;;;;;;15.25;9.77;;;;;;;;;;5025817;28;20029;-65
2023/08/26 03:38:49;;;;;;;16.52;9.82;;;;;;;;;;5021171;28;20059;-65
2023/08/26 03:41:14;;;;;;;16.80;10.18;;;;;;;;;;5021778;28;20071;-65
2023/08/26 03:43:39;;;;;;;17.92;9.68;;;;;;;;;;5019974;28;20042;-65
2023/08/26 03:46:06;;;;;;;18.23;9.75;;;;;;;;;;5019262;28;20053;-66
2023/08/26 03:48:31;;;;;;;18.63;10.40;;;;;;;;;;5019275;28;20047;-66
2023/08/26 03:50:57;;;;;;;18.73;10.15;;;;;;;;;;5022809;28;20216;-64
2023/08/26 03:53:22;;;;;;;17.88;8.88;;;;;;;;;;5019151;28;20572;-66
2023/08/26 03:55:48;;;;;;;16.73;9.50;;;;;;;;;;5020227;28;20037;-66
2023/08/26 03:58:13;;;;;;;16.67;10.02;;;;;;;;;;5020547;28;20536;-66
2023/08/26 04:00:38;;;;;;;20.95;9.90;;;;;;;;;;5033449;28;20047;-66
2023/08/26 04:03:04;;;;;;;21.17;11.10;;;;;;;;;;5020601;28;20044;-66
2023/08/26 04:05:30;;;;;;;19.52;10.73;;;;;;;;;;4996939;28;20470;-63
2023/08/26 04:07:55;;;;;;;21.83;10.10;;;;;;;;;;5004133;28;20033;-64
2023/08/26 04:10:23;;;;;;;29.70;11.93;;;;;;;;;;4999014;28;20046;-64
2023/08/26 04:12:48;;;;;;;28.92;12.75;;;;;;;;;;5000341;28;20311;-66
2023/08/26 04:15:14;;;;;;;31.88;11.77;;;;;;;;;;4996722;28;20038;-64
2023/08/26 04:17:42;;;;;;;26.50;9.02;;;;;;;;;;4998149;28;20046;-64
2023/08/26 04:20:08;;;;;;;20.38;6.80;;;;;;;;;;5006668;28;20205;-64
2023/08/26 04:22:34;;;;;;;15.20;6.25;;;;;;;;;;5022989;28;20061;-64
2023/08/26 04:24:59;;;;;;;9.07;5.20;;;;;;;;;;5016623;28;20078;-64
2023/08/26 04:27:24;;;;;;;12.32;5.85;;;;;;;;;;5018263;28;20140;-64
2023/08/26 04:29:50;;;;;;;14.10;6.03;;;;;;;;;;5018371;28;20930;-64
2023/08/26 04:32:17;;;;;;;12.68;7.53;;;;;;;;;;5050449;28;20051;-64
2023/08/26 04:34:42;;;;;;;19.15;9.00;;;;;;;;;;5017012;28;20037;-63
2023/08/26 04:37:08;;;;;;;19.85;9.90;;;;;;;;;;5033929;28;20060;-66
2023/08/26 04:39:34;;;;;;;20.98;10.43;;;;;;;;;;5031532;28;20128;-65
2023/08/26 04:42:00;;;;;;;24.98;11.02;;;;;;;;;;5041406;28;20042;-65
2023/08/26 04:44:26;;;;;;;28.92;12.55;;;;;;;;;;4997477;28;20045;-65
2023/08/26 04:46:53;;;;;;;51.17;18.73;;;;;;;;;;4987750;28;20042;-65
2023/08/26 04:49:21;;;;;;;64.00;24.40;;;;;;;;;;5003640;28;20045;-65
2023/08/26 04:51:49;;;;;;;77.03;31.92;;;;;;;;;;4999849;28;20049;-65
2023/08/26 04:54:17;;;;;;;76.03;32.30;;;;;;;;;;4998997;28;20065;-66
2023/08/26 04:56:43;;;;;;;64.72;27.98;;;;;;;;;;4997940;28;20034;-66
2023/08/26 04:59:08;;;;;;;51.58;25.10;;;;;;;;;;4997905;28;20049;-65
2023/08/26 05:01:33;;;;;;;64.53;31.85;;;;;;;;;;4998893;28;21798;-66
2023/08/26 05:03:58;;;;;;;71.65;34.05;;;;;;;;;;4996861;28;20082;-65
2023/08/26 05:06:24;;;;;;;93.20;39.30;;;;;;;;;;4994665;28;20137;-66
2023/08/26 05:08:51;;;;;;;53.05;28.70;;;;;;;;;;4998453;28;20585;-64
2023/08/26 05:11:17;;;;;;;39.63;21.20;;;;;;;;;;4997765;28;20076;-63
2023/08/26 05:13:42;;;;;;;23.38;12.93;;;;;;;;;;5004407;28;20663;-64
2023/08/26 05:16:07;;;;;;;28.00;7.60;;;;;;;;;;4999140;28;20037;-63
2023/08/26 05:18:32;;;;;;;36.25;5.53;;;;;;;;;;4999092;28;20782;-64
2023/08/26 05:20:59;;;;;;;27.60;3.85;;;;;;;;;;4999823;28;20064;-65
2023/08/26 05:23:24;;;;;;;19.80;3.40;;;;;;;;;;5002970;28;20030;-65
2023/08/26 05:25:50;;;;;;;24.17;3.58;;;;;;;;;;5002078;28;20045;-66
2023/08/26 05:28:17;;;;;;;24.40;4.43;;;;;;;;;;4997690;28;20033;-65
2023/08/26 05:30:43;;;;;;;20.40;2.97;;;;;;;;;;4996168;28;20460;-65
2023/08/26 05:33:08;;;;;;;15.90;2.83;;;;;;;;;;4995959;28;20083;-66
2023/08/26 05:35:33;;;;;;;15.43;3.65;;;;;;;;;;4997285;28;20087;-66
2023/08/26 05:37:59;;;;;;;13.63;3.38;;;;;;;;;;4996835;28;20030;-66
2023/08/26 05:40:28;;;;;;;14.70;3.45;;;;;;;;;;5010858;28;20549;-67
2023/08/26 05:42:59;;;;;;;14.15;3.38;;;;;;;;;;4996984;28;20029;-67
2023/08/26 05:45:25;;;;;;;17.42;4.00;;;;;;;;;;4996683;28;20034;-67
2023/08/26 05:47:51;;;;;;;18.45;4.25;;;;;;;;;;5003513;28;20041;-68
2023/08/26 05:50:16;;;;;;;13.32;4.75;;;;;;;;;;4998114;28;20208;-67
2023/08/26 05:52:42;;;;;;;16.58;6.00;;;;;;;;;;4998718;28;20128;-68
2023/08/26 05:55:08;;;;;;;19.45;8.40;;;;;;;;;;4996771;28;20052;-66
2023/08/26 05:57:33;;;;;;;18.45;9.38;;;;;;;;;;4998616;28;21072;-66
2023/08/26 05:59:59;;;;;;;26.20;17.25;;;;;;;;;;4995139;28;20095;-66
2023/08/26 06:02:24;;;;;;;34.17;22.02;;;;;;;;;;4999757;28;20048;-66
2023/08/26 06:04:49;;;;;;;34.72;22.38;;;;;;;;;;4996575;28;20088;-66
2023/08/26 06:07:18;;;;;;;32.88;23.33;;;;;;;;;;4996212;28;20091;-66
2023/08/26 06:09:43;;;;;;;44.40;26.13;;;;;;;;;;4993708;28;20053;-67
2023/08/26 06:12:08;;;;;;;41.42;25.52;;;;;;;;;;4995158;28;20037;-66
2023/08/26 06:14:34;;;;;;;41.65;25.45;;;;;;;;;;4997191;28;22329;-67
2023/08/26 06:16:59;;;;;;;58.35;31.20;;;;;;;;;;4998283;28;20079;-67
2023/08/26 06:19:24;;;;;;;64.22;36.00;;;;;;;;;;4996873;28;20042;-66
2023/08/26 06:21:49;;;;;;;61.08;33.20;;;;;;;;;;4998693;28;20037;-65
2023/08/26 06:24:16;;;;;;;63.42;31.13;;;;;;;;;;4999077;28;20062;-65
2023/08/26 06:26:42;;;;;;;81.53;39.30;;;;;;;;;;4998312;28;20627;-66
2023/08/26 06:29:07;;;;;;;73.97;36.47;;;;;;;;;;5028968;28;20053;-66
2023/08/26 06:31:35;;;;;;;88.65;38.53;;;;;;;;;;4998317;28;20055;-66
2023/08/26 06:34:01;;;;;;;37.63;22.15;;;;;;;;;;4997383;28;20034;-66
2023/08/26 06:36:27;;;;;;;33.25;20.60;;;;;;;;;;4994127;28;20041;-66
2023/08/26 06:38:52;;;;;;;29.40;18.33;;;;;;;;;;4997496;28;20045;-66
2023/08/26 06:41:17;;;;;;;27.98;16.85;;;;;;;;;;4996363;28;20163;-69
2023/08/26 06:43:45;;;;;;;29.25;16.20;;;;;;;;;;4998434;28;20069;-69
2023/08/26 06:46:10;;;;;;;31.42;17.55;;;;;;;;;;4993101;28;20037;-69
2023/08/26 06:48:38;;;;;;;36.10;21.70;;;;;;;;;;4995888;28;20053;-68
2023/08/26 06:51:03;;;;;;;40.53;19.83;;;;;;;;;;4995478;28;20045;-68
2023/08/26 06:53:29;;;;;;;24.80;13.15;;;;;;;;;;4996287;28;20480;-69
2023/08/26 06:55:56;;;;;;;22.23;13.50;;;;;;;;;;4995758;28;20037;-68
2023/08/26 06:58:23;;;;;;;24.15;11.60;;;;;;;;;;4994862;28;20034;-66
2023/08/26 07:00:49;;;;;;;17.27;7.18;;;;;;;;;;4997650;28;20570;-67
2023/08/26 07:03:14;;;;;;;11.55;3.45;;;;;;;;;;4993923;28;20393;-66
2023/08/26 07:05:43;;;;;;;9.20;2.10;;;;;;;;;;4992458;28;20434;-66
2023/08/26 07:08:08;;;;;;;6.45;2.30;;;;;;;;;;4999699;28;21031;-66
2023/08/26 07:10:34;;;;;;;9.48;2.67;;;;;;;;;;4998016;28;20033;-69
2023/08/26 07:12:59;;;;;;;12.43;2.58;;;;;;;;;;4999664;28;20465;-66
2023/08/26 07:15:24;;;;;;;7.13;2.28;;;;;;;;;;4998156;28;20570;-68
2023/08/26 07:17:53;;;;;;;9.23;2.38;;;;;;;;;;5000395;28;20384;-68
2023/08/26 07:20:18;;;;;;;8.55;2.25;;;;;;;;;;4999183;28;20094;-67
2023/08/26 07:22:46;;;;;;;7.03;2.22;;;;;;;;;;5000662;28;20047;-68
2023/08/26 07:25:14;;;;;;;10.75;2.13;;;;;;;;;;5000611;28;20052;-67
2023/08/26 07:27:40;;;;;;;12.05;2.28;;;;;;;;;;5000993;28;20041;-67
2023/08/26 07:30:06;;;;;;;11.98;2.20;;;;;;;;;;4999826;28;20045;-68
2023/08/26 07:32:31;;;;;;;12.88;2.78;;;;;;;;;;4997254;28;22232;-69
2023/08/26 07:34:59;;;;;;;9.85;2.38;;;;;;;;;;4999687;28;20045;-68
2023/08/26 07:37:25;;;;;;;9.43;3.03;;;;;;;;;;5031496;28;22695;-67
2023/08/26 07:39:50;;;;;;;13.02;2.90;;;;;;;;;;5000383;28;20040;-67
2023/08/26 07:42:16;;;;;;;17.15;3.83;;;;;;;;;;5001100;28;20061;-67
2023/08/26 07:44:41;;;;;;;16.77;3.88;;;;;;;;;;4999948;28;20040;-68
2023/08/26 07:47:07;;;;;;;17.75;5.18;;;;;;;;;;5006255;28;20041;-67
2023/08/26 07:49:32;;;;;;;22.10;6.28;;;;;;;;;;5048990;28;20040;-67
2023/08/26 07:51:57;;;;;;;32.75;10.20;;;;;;;;;;5022025;28;20029;-63
2023/08/26 07:54:22;;;;;;;40.53;13.98;;;;;;;;;;5021580;28;20118;-64
2023/08/26 07:56:48;;;;;;;37.55;13.63;;;;;;;;;;5019043;28;20112;-64
2023/08/26 07:59:13;;;;;;;25.85;9.15;;;;;;;;;;5025353;28;20068;-65
2023/08/26 08:01:38;;;;;;;17.13;6.32;;;;;;;;;;5021796;28;20097;-68
2023/08/26 08:04:03;;;;;;;28.48;11.05;;;;;;;;;;5020046;28;20037;-65
2023/08/26 08:06:29;;;;;;;34.10;9.45;;;;;;;;;;5018740;28;20037;-69
2023/08/26 08:08:54;;;;;;;21.02;7.55;;;;;;;;;;5018829;28;20664;-70
2023/08/26 08:11:19;;;;;;;24.17;6.78;;;;;;;;;;5017966;28;20041;-70
2023/08/26 08:13:45;;;;;;;22.63;6.72;;;;;;;;;;5025254;28;20037;-70
2023/08/26 08:16:10;;;;;;;24.23;7.57;;;;;;;;;;5020860;28;20037;-68
2023/08/26 08:18:36;;;;;;;19.42;6.35;;;;;;;;;;5020984;28;20060;-69
2023/08/26 08:21:02;;;;;;;24.48;9.32;;;;;;;;;;5017350;28;20036;-71
2023/08/26 08:23:28;;;;;;;22.75;8.15;;;;;;;;;;5020103;28;20034;-71
2023/08/26 08:25:53;;;;;;;17.73;6.63;;;;;;;;;;5023976;28;20094;-71
2023/08/26 08:28:18;;;;;;;20.23;8.05;;;;;;;;;;5021343;28;20068;-71
2023/08/26 08:30:46;;;;;;;22.63;11.38;;;;;;;;;;5019272;28;20534;-70
2023/08/26 08:33:11;;;;;;;25.67;12.38;;;;;;;;;;5021889;28;20037;-71
2023/08/26 08:35:38;;;;;;;34.53;12.63;;;;;;;;;;5007903;28;20079;-71
2023/08/26 08:38:04;;;;;;;46.85;15.02;;;;;;;;;;5021812;28;20561;-68
2023/08/26 08:40:29;;;;;;;53.92;15.65;;;;;;;;;;5003140;28;20889;-65
2023/08/26 08:42:57;;;;;;;46.10;15.75;;;;;;;;;;5018911;28;20037;-67
2023/08/26 08:45:23;;;;;;;16.27;6.47;;;;;;;;;;5016331;28;20033;-67
2023/08/26 08:47:53;;;;;;;14.85;5.65;;;;;;;;;;5016090;28;20976;-67
2023/08/26 08:50:19;;;;;;;12.90;6.10;;;;;;;;;;5014915;27;20073;-67
2023/08/26 08:52:46;;;;;;;17.65;6.78;;;;;;;;;;5019856;28;20061;-67
2023/08/26 08:55:12;;;;;;;23.38;8.60;;;;;;;;;;5018814;28;20030;-67
2023/08/26 08:57:38;;;;;;;22.08;8.45;;;;;;;;;;5031481;28;20048;-67
2023/08/26 09:00:04;;;;;;;18.35;7.20;;;;;;;;;;4997516;28;20579;-67
2023/08/26 09:02:29;;;;;;;14.35;6.75;;;;;;;;;;5001851;28;20067;-67
2023/08/26 09:04:54;;;;;;;8.40;5.53;;;;;;;;;;5013581;28;20414;-66
2023/08/26 09:07:20;;;;;;;10.57;6.00;;;;;;;;;;5049239;28;20125;-67
2023/08/26 09:09:48;;;;;;;13.93;4.80;;;;;;;;;;5015941;28;20204;-67
2023/08/26 09:12:16;;;;;;;10.15;4.65;;;;;;;;;;5018476;28;20118;-67
2023/08/26 09:14:41;;;;;;;21.08;7.75;;;;;;;;;;5005056;28;20045;-67
2023/08/26 09:17:16;;;;;;;22.15;7.63;;;;;;;;;;5015955;28;20044;-67
2023/08/26 09:19:50;;;;;;;14.45;5.80;;;;;;;;;;5019291;28;20073;-65
2023/08/26 09:22:19;;;;;;;17.58;6.85;;;;;;;;;;5017663;28;22008;-69
2023/08/26 09:24:45;;;;;;;17.80;7.07;;;;;;;;;;5017546;28;20220;-71
2023/08/26 09:27:10;;;;;;;21.13;6.82;;;;;;;;;;5016556;28;20040;-73
2023/08/26 09:29:37;;;;;;;11.02;4.30;;;;;;;;;;5016098;28;21270;-73
2023/08/26 09:32:03;;;;;;;22.67;7.43;;;;;;;;;;5017275;28;20498;-74
2023/08/26 09:34:32;;;;;;;19.58;7.80;;;;;;;;;;5017191;28;22225;-72
2023/08/26 09:37:00;;;;;;;35.70;13.65;;;;;;;;;;5018994;28;20155;-71
2023/08/26 09:39:26;;;;;;;40.90;13.30;;;;;;;;;;5013883;28;20041;-73
2023/08/26 09:41:53;;;;;;;32.10;12.30;;;;;;;;;;4994085;28;20088;-71
2023/08/26 09:44:21;;;;;;;17.35;5.20;;;;;;;;;;4997567;28;20395;-71
2023/08/26 09:46:46;;;;;;;12.18;3.85;;;;;;;;;;5010619;28;20085;-70
2023/08/26 09:49:16;;;;;;;14.05;6.15;;;;;;;;;;5017268;28;20501;-69
2023/08/26 09:51:45;;;;;;;14.13;6.10;;;;;;;;;;5020915;28;20460;-69
2023/08/26 09:54:11;;;;;;;16.58;6.20;;;;;;;;;;5018327;28;20036;-70
2023/08/26 09:56:36;;;;;;;17.25;6.72;;;;;;;;;;5005754;28;20064;-70
2023/08/26 09:59:02;;;;;;;33.53;10.50;;;;;;;;;;5015612;28;20098;-70
2023/08/26 10:01:29;;;;;;;12.98;2.88;;;;;;;;;;5018308;28;20178;-69
2023/08/26 10:04:10;;;;;;;26.25;4.45;;;;;;;;;;5016665;28;20041;-71
2023/08/26 10:06:55;;;;;;;20.38;3.00;;;;;;;;;;5016863;28;20048;-72
2023/08/26 10:09:26;;;;;;;15.60;3.20;;;;;;;;;;5014487;28;20446;-69
2023/08/26 10:11:54;;;;;;;11.23;2.83;;;;;;;;;;5017873;28;20041;-71
2023/08/26 10:14:21;;;;;;;12.90;4.90;;;;;;;;;;5017912;28;20040;-71
2023/08/26 10:16:47;;;;;;;19.33;4.10;;;;;;;;;;5018844;28;21980;-71
2023/08/26 10:19:13;;;;;;;10.35;2.90;;;;;;;;;;5016049;28;20398;-73
2023/08/26 10:21:38;;;;;;;14.32;3.40;;;;;;;;;;5016127;28;20055;-73
2023/08/26 10:24:04;;;;;;;11.77;2.45;;;;;;;;;;5016286;28;20353;-72
2023/08/26 10:26:30;;;;;;;14.63;2.22;;;;;;;;;;5018205;28;20028;-70
2023/08/26 10:28:58;;;;;;;19.77;2.47;;;;;;;;;;5021559;28;20068;-72
2023/08/26 10:31:31;;;;;;;7.88;1.83;;;;;;;;;;5018508;28;20043;-71
2023/08/26 10:34:01;;;;;;;8.25;1.83;;;;;;;;;;5019705;28;20060;-72
2023/08/26 10:36:29;;;;;;;6.80;1.70;;;;;;;;;;5014720;28;20033;-72
2023/08/26 10:38:57;;;;;;;9.68;1.90;;;;;;;;;;5017072;28;20792;-71
2023/08/26 10:41:23;;;;;;;8.93;2.00;;;;;;;;;;5017454;28;20517;-72
2023/08/26 10:43:52;;;;;;;8.32;2.42;;;;;;;;;;5015601;28;22055;-71
2023/08/26 10:46:17;;;;;;;8.95;2.00;;;;;;;;;;4996898;28;20158;-71
2023/08/26 10:48:59;;;;;;;8.00;2.00;;;;;;;;;;5037292;28;20500;-69
2023/08/26 10:51:27;;;;;;;7.85;1.90;;;;;;;;;;5046958;28;20512;-71
2023/08/26 10:53:59;;;;;;;9.63;2.60;;;;;;;;;;5046996;28;20037;-70
2023/08/26 10:56:26;;;;;;;;;;;;;;;;;;5025903;28;20060;-69
2023/08/26 10:58:52;;;;;;;15.32;4.05;;;;;;;;;;5015991;28;19920;-69
2023/08/26 11:01:22;;;;;;;24.60;3.72;;;;;;;;;;5014145;28;20034;-71
2023/08/26 11:03:47;;;;;;;11.68;2.78;;;;;;;;;;4998771;28;20044;-70
2023/08/26 11:06:19;;;;;;;15.48;2.63;;;;;;;;;;5017452;28;20123;-70
2023/08/26 11:08:51;;;;;;;15.65;3.10;;;;;;;;;;5018516;28;20586;-70
2023/08/26 11:11:17;;;;;;;9.27;2.80;;;;;;;;;;5048385;28;20551;-70
2023/08/26 11:13:42;;;;;;;6.35;2.42;;;;;;;;;;5018234;28;20044;-71
2023/08/26 11:16:09;;;;;;;10.57;2.60;;;;;;;;;;5015859;28;20025;-73
2023/08/26 11:18:35;;;;;;;8.63;2.97;;;;;;;;;;5013673;28;20448;-72
2023/08/26 11:21:03;;;;;;;9.65;2.75;;;;;;;;;;5016749;28;20037;-74
2023/08/26 11:23:29;;;;;;;18.05;2.50;;;;;;;;;;5013979;28;20041;-75
2023/08/26 11:25:54;;;;;;;10.55;2.60;;;;;;;;;;5016786;28;22310;-74
2023/08/26 11:28:20;;;;;;;7.97;2.30;;;;;;;;;;5016289;28;20041;-73
2023/08/26 11:30:45;;;;;;;17.20;3.00;;;;;;;;;;5017621;28;20681;-74
2023/08/26 11:33:12;;;;;;;24.30;3.55;;;;;;;;;;5021323;28;20041;-74
2023/08/26 11:35:47;;;;;;;16.63;2.95;;;;;;;;;;5021967;28;22632;-73
2023/08/26 11:38:13;;;;;;;19.98;2.85;;;;;;;;;;5044304;28;20029;-73
2023/08/26 11:40:38;;;;;;;14.45;3.03;;;;;;;;;;5013505;28;20048;-74
2023/08/26 11:43:13;;;;;;;19.85;2.88;;;;;;;;;;5005975;28;20905;-74
2023/08/26 11:45:43;;;;;;;10.75;2.15;;;;;;;;;;5017618;28;20051;-75
2023/08/26 11:48:10;;;;;;;10.90;2.08;;;;;;;;;;5019403;28;20101;-75
2023/08/26 11:50:39;;;;;;;9.07;2.28;;;;;;;;;;5015385;28;20048;-69
2023/08/26 11:53:05;;;;;;;9.07;2.15;;;;;;;;;;5050095;28;20033;-67
2023/08/26 11:55:30;;;;;;;11.60;2.25;;;;;;;;;;5020325;28;20623;-73
2023/08/26 11:57:56;;;;;;;6.47;1.70;;;;;;;;;;5022298;28;20029;-74
2023/08/26 12:00:22;;;;;;;7.07;1.50;;;;;;;;;;5022616;28;20033;-72
2023/08/26 12:02:48;;;;;;;4.95;1.80;;;;;;;;;;5023012;28;20033;-74
2023/08/26 12:05:17;;;;;;;5.10;1.77;;;;;;;;;;5051991;28;20696;-72
2023/08/26 12:07:44;;;;;;;8.07;1.63;;;;;;;;;;5020434;28;20114;-73
2023/08/26 12:10:12;;;;;;;8.60;1.50;;;;;;;;;;5021735;28;20520;-74
2023/08/26 12:12:38;;;;;;;4.22;1.50;;;;;;;;;;5020995;28;20037;-73
2023/08/26 12:15:06;;;;;;;7.53;2.20;;;;;;;;;;5019323;28;20122;-73
2023/08/26 12:17:31;;;;;;;13.45;1.70;;;;;;;;;;5005026;28;20113;-75
2023/08/26 12:19:59;;;;;;;15.77;3.63;;;;;;;;;;5024105;28;20725;-72
2023/08/26 12:22:24;;;;;;;8.77;3.00;;;;;;;;;;5016627;28;20021;-74
2023/08/26 12:24:50;;;;;;;10.18;2.95;;;;;;;;;;5015868;28;20152;-73
2023/08/26 12:27:15;;;;;;;10.38;4.35;;;;;;;;;;5021173;28;20040;-72
2023/08/26 12:29:40;;;;;;;12.07;4.57;;;;;;;;;;5019751;28;20074;-71
2023/08/26 12:32:06;;;;;;;10.32;7.00;;;;;;;;;;5020732;28;20060;-71
2023/08/26 12:34:32;;;;;;;13.50;5.70;;;;;;;;;;5018606;28;20033;-71
2023/08/26 12:36:57;;;;;;;11.38;3.30;;;;;;;;;;5048962;28;20082;-73
2023/08/26 12:39:24;;;;;;;12.88;2.90;;;;;;;;;;5018132;28;20048;-70
2023/08/26 12:41:50;;;;;;;8.30;2.20;;;;;;;;;;5017608;28;20064;-71
2023/08/26 12:44:15;;;;;;;9.00;2.22;;;;;;;;;;5016540;28;20164;-72
2023/08/26 12:46:40;;;;;;;6.85;2.00;;;;;;;;;;5016573;28;20040;-71
2023/08/26 12:49:06;;;;;;;6.10;1.52;;;;;;;;;;5015793;28;20894;-71
2023/08/26 12:51:31;;;;;;;4.65;1.23;;;;;;;;;;5017343;28;20138;-71
2023/08/26 12:53:56;;;;;;;3.45;1.27;;;;;;;;;;5015169;28;20044;-71
2023/08/26 12:56:22;;;;;;;9.15;1.50;;;;;;;;;;5017070;28;20576;-70
2023/08/26 12:58:49;;;;;;;7.97;1.40;;;;;;;;;;5018231;28;20036;-73
2023/08/26 13:01:17;;;;;;;8.40;1.50;;;;;;;;;;5014805;28;22323;-71
2023/08/26 13:03:42;;;;;;;7.60;1.33;;;;;;;;;;5015962;28;20063;-72
2023/08/26 13:06:07;;;;;;;8.30;1.30;;;;;;;;;;5016369;28;20034;-69
2023/08/26 13:08:32;;;;;;;8.27;1.30;;;;;;;;;;5015144;28;20061;-73
2023/08/26 13:10:59;;;;;;;6.55;1.27;;;;;;;;;;5014602;28;20037;-70
2023/08/26 13:13:25;;;;;;;5.38;1.10;;;;;;;;;;5017294;28;20037;-72
2023/08/26 13:15:50;;;;;;;7.78;1.38;;;;;;;;;;5013625;28;20147;-72
2023/08/26 13:18:15;;;;;;;9.90;1.50;;;;;;;;;;5014884;28;20029;-74
2023/08/26 13:20:41;;;;;;;7.20;1.52;;;;;;;;;;5014772;28;20030;-76
2023/08/26 13:23:07;;;;;;;4.60;1.10;;;;;;;;;;5017661;28;20119;-73
2023/08/26 13:25:32;;;;;;;8.45;1.52;;;;;;;;;;5030672;28;20128;-72
2023/08/26 13:27:57;;;;;;;5.40;1.20;;;;;;;;;;5049932;28;20037;-75
2023/08/26 13:30:23;;;;;;;6.75;1.20;;;;;;;;;;5014166;28;20051;-76
2023/08/26 13:32:48;;;;;;;8.85;1.60;;;;;;;;;;5021071;28;20051;-73
2023/08/26 13:35:14;;;;;;;14.07;1.90;;;;;;;;;;5016275;28;20089;-71
2023/08/26 13:37:41;;;;;;;12.75;1.80;;;;;;;;;;5016368;28;20688;-70
2023/08/26 13:40:07;;;;;;;8.82;1.70;;;;;;;;;;5015534;28;20033;-74
2023/08/26 13:42:33;;;;;;;8.93;1.58;;;;;;;;;;5016586;28;20036;-72
2023/08/26 13:44:58;;;;;;;7.75;1.30;;;;;;;;;;5017395;28;20680;-77
2023/08/26 13:47:23;;;;;;;8.15;1.38;;;;;;;;;;5017659;28;20037;-75
2023/08/26 13:49:49;;;;;;;6.03;1.45;;;;;;;;;;5020775;28;20052;-77
2023/08/26 13:52:14;;;;;;;5.97;1.10;;;;;;;;;;5017314;28;20076;-77
2023/08/26 13:54:40;;;;;;;4.85;1.27;;;;;;;;;;5016507;28;20046;-73
2023/08/26 13:57:05;;;;;;;6.32;1.10;;;;;;;;;;5018256;28;20029;-78
2023/08/26 13:59:32;;;;;;;3.60;0.80;;;;;;;;;;5017206;28;20045;-74
2023/08/26 14:01:57;;;;;;;6.63;1.00;;;;;;;;;;5015554;28;20137;-76
2023/08/26 14:04:24;;;;;;;5.47;0.90;;;;;;;;;;5014700;28;20962;-76
2023/08/26 14:06:50;;;;;;;3.05;0.80;;;;;;;;;;5019003;28;20033;-74
2023/08/26 14:09:21;;;;;;;4.22;0.90;;;;;;;;;;5018698;28;20489;-78
2023/08/26 14:11:46;;;;;;;4.88;1.00;;;;;;;;;;5009754;28;20041;-77
2023/08/26 14:14:11;;;;;;;5.18;0.90;;;;;;;;;;5012244;28;20037;-76
2023/08/26 14:16:37;;;;;;;6.65;0.88;;;;;;;;;;5012656;28;20208;-75
2023/08/26 14:19:03;;;;;;;3.42;0.73;;;;;;;;;;5012977;28;20048;-72
2023/08/26 14:21:28;;;;;;;5.63;0.90;;;;;;;;;;5011660;28;20545;-74
2023/08/26 14:23:53;;;;;;;4.10;0.98;;;;;;;;;;5013622;28;20044;-74
2023/08/26 14:26:19;;;;;;;8.02;0.80;;;;;;;;;;5009286;28;20039;-76